N420HE LFBD-EGGP
Flight info
| Callsign | N420HE |
|---|---|
| Flight time | N/A |
| Altitude | 43000 |
| Route | ROYAN DCT MANAK UT183 TIRAV UN490 TERPO UM616 KORER DCT NOZHU DCT PEPZE |
| Aircraft | HDJT/L-SABDGRWY/H |
Departure
| Time | 2026-05-07 18:53 |
|---|---|
| Airport | Bordeaux–Mérignac Airport (LFBD) |
Arrival
| Time | N/A |
|---|---|
| Airport | Liverpool John Lennon Airport (EGGP) |
| Time | Latitude | Longitude | Altitude | Speed | Heading |
|---|---|---|---|---|---|
| 2026-05-07 18:40 | 44.83640 | -0.69834 | 156 ft | 0 kts | 225° |
| 2026-05-07 18:46 | 44.83636 | -0.69840 | 156 ft | 4 kts | 231° |
| 2026-05-07 18:47 | 44.83625 | -0.69904 | 156 ft | 8 kts | 228° |
| 2026-05-07 18:47 | 44.83626 | -0.70015 | 156 ft | 8 kts | 246° |
| 2026-05-07 18:47 | 44.83569 | -0.70083 | 157 ft | 16 kts | 223° |
| 2026-05-07 18:47 | 44.83466 | -0.70228 | 158 ft | 25 kts | 225° |
| 2026-05-07 18:48 | 44.83352 | -0.70386 | 160 ft | 21 kts | 222° |
| 2026-05-07 18:48 | 44.83283 | -0.70483 | 161 ft | 24 kts | 225° |
| 2026-05-07 18:48 | 44.83165 | -0.70659 | 162 ft | 23 kts | 226° |
| 2026-05-07 18:48 | 44.83061 | -0.70806 | 164 ft | 19 kts | 225° |
| 2026-05-07 18:49 | 44.82971 | -0.70933 | 164 ft | 17 kts | 224° |
| 2026-05-07 18:49 | 44.82971 | -0.71087 | 164 ft | 19 kts | 286° |
| 2026-05-07 18:49 | 44.83018 | -0.71309 | 162 ft | 24 kts | 286° |
| 2026-05-07 18:49 | 44.83063 | -0.71521 | 163 ft | 21 kts | 287° |
| 2026-05-07 18:50 | 44.83102 | -0.71706 | 163 ft | 18 kts | 286° |
| 2026-05-07 18:50 | 44.83134 | -0.71867 | 162 ft | 16 kts | 288° |
| 2026-05-07 18:50 | 44.83163 | -0.72007 | 162 ft | 14 kts | 278° |
| 2026-05-07 18:50 | 44.83123 | -0.72099 | 162 ft | 10 kts | 198° |
| 2026-05-07 18:51 | 44.83063 | -0.72122 | 163 ft | 8 kts | 194° |
| 2026-05-07 18:51 | 44.83023 | -0.72146 | 164 ft | 6 kts | 229° |
| 2026-05-07 18:51 | 44.83010 | -0.72191 | 164 ft | 4 kts | 220° |
| 2026-05-07 18:51 | 44.83003 | -0.72192 | 164 ft | 1 kts | 130° |
| 2026-05-07 18:52 | 44.83001 | -0.72185 | 164 ft | 0 kts | 105° |
| 2026-05-07 18:52 | 44.83001 | -0.72183 | 164 ft | 4 kts | 105° |
| 2026-05-07 18:52 | 44.82909 | -0.71736 | 167 ft | 90 kts | 107° |
| 2026-05-07 18:53 | 44.82665 | -0.70595 | 378 ft | 139 kts | 107° |
| 2026-05-07 18:53 | 44.82316 | -0.69235 | 999 ft | 159 kts | 127° |
| 2026-05-07 18:53 | 44.81291 | -0.68447 | 1576 ft | 186 kts | 172° |
| 2026-05-07 18:53 | 44.79974 | -0.68895 | 2144 ft | 205 kts | 211° |
| 2026-05-07 18:54 | 44.79045 | -0.70436 | 2672 ft | 215 kts | 249° |
| 2026-05-07 18:54 | 44.79214 | -0.72554 | 3044 ft | 233 kts | 300° |
| 2026-05-07 18:54 | 44.80040 | -0.74580 | 3674 ft | 244 kts | 298° |
| 2026-05-07 18:54 | 44.80803 | -0.76709 | 4800 ft | 242 kts | 295° |
| 2026-05-07 18:55 | 44.81544 | -0.78852 | 5834 ft | 244 kts | 298° |
| 2026-05-07 18:55 | 44.82640 | -0.80646 | 6864 ft | 244 kts | 324° |
| 2026-05-07 18:55 | 44.84205 | -0.81514 | 7772 ft | 250 kts | 352° |
| 2026-05-07 18:55 | 44.85935 | -0.81231 | 8716 ft | 256 kts | 20° |
| 2026-05-07 18:56 | 44.87347 | -0.79800 | 9950 ft | 245 kts | 51° |
| 2026-05-07 18:56 | 44.87952 | -0.78474 | 10607 ft | 247 kts | 61° |